Tracy-Clark, Nevada
Current Conditions -  °F | °C
As of 9:55 PM on Wednesday 26 Nov 2014 (Local Time) from KRNO Reporting Station
Broken Clouds Broken Clouds  
Wind Chill: 49°   Ceiling: 25000
Heat Index: 49°   Visibility: 10mi
Dew Point: 28°   Wind: 0mph
Humidity: 44%   Direction: NA
Pressure: 30.31"   Gusts: NA
Location:  39.5403°N, 119.672°W
Report Text: KRNO 270555Z 00000KT 10SM SCT160 BKN250 09/M02 A3031 RMK AO2 SLP250 T00941022 10189 20094 55002
Loading
Personal Weather Stations






























Interactive Weather Map New forecast layout! Learn more

10-Day Weather Forecast

Advertisements
Track Severe Weather on mobile